sensor_id;sensor_type;location;lat;lon;timestamp;temperature;humidity
16517;DHT22;8371;52.272;9.746;2024-01-07T00:00:20;2.60;89.60
16517;DHT22;8371;52.272;9.746;2024-01-07T00:02:46;2.60;89.60
16517;DHT22;8371;52.272;9.746;2024-01-07T00:05:12;2.60;89.60
16517;DHT22;8371;52.272;9.746;2024-01-07T00:07:37;2.60;89.60
16517;DHT22;8371;52.272;9.746;2024-01-07T00:10:03;2.60;89.60
16517;DHT22;8371;52.272;9.746;2024-01-07T00:12:29;2.60;89.60
16517;DHT22;8371;52.272;9.746;2024-01-07T00:14:55;2.60;89.50
16517;DHT22;8371;52.272;9.746;2024-01-07T00:17:20;2.60;89.60
16517;DHT22;8371;52.272;9.746;2024-01-07T00:19:46;2.60;89.50
16517;DHT22;8371;52.272;9.746;2024-01-07T00:22:12;2.60;89.50
16517;DHT22;8371;52.272;9.746;2024-01-07T00:24:37;2.60;89.60
16517;DHT22;8371;52.272;9.746;2024-01-07T00:27:03;2.60;89.40
16517;DHT22;8371;52.272;9.746;2024-01-07T00:29:29;2.60;89.40
16517;DHT22;8371;52.272;9.746;2024-01-07T00:31:56;2.60;89.40
16517;DHT22;8371;52.272;9.746;2024-01-07T00:34:21;2.60;89.40
16517;DHT22;8371;52.272;9.746;2024-01-07T00:36:49;2.60;89.30
16517;DHT22;8371;52.272;9.746;2024-01-07T00:39:14;2.60;89.20
16517;DHT22;8371;52.272;9.746;2024-01-07T00:41:40;2.60;89.20
16517;DHT22;8371;52.272;9.746;2024-01-07T00:44:06;2.50;89.10
16517;DHT22;8371;52.272;9.746;2024-01-07T00:46:31;2.50;89.10
16517;DHT22;8371;52.272;9.746;2024-01-07T00:48:57;2.60;89.20
16517;DHT22;8371;52.272;9.746;2024-01-07T00:51:23;2.50;89.40
16517;DHT22;8371;52.272;9.746;2024-01-07T00:53:48;2.50;89.30
16517;DHT22;8371;52.272;9.746;2024-01-07T00:56:17;2.50;89.30
16517;DHT22;8371;52.272;9.746;2024-01-07T00:58:43;2.50;90.00
16517;DHT22;8371;52.272;9.746;2024-01-07T01:01:08;2.50;89.30
16517;DHT22;8371;52.272;9.746;2024-01-07T01:03:34;2.50;89.50
16517;DHT22;8371;52.272;9.746;2024-01-07T01:05:59;2.60;89.40
16517;DHT22;8371;52.272;9.746;2024-01-07T01:08:25;2.50;89.30
16517;DHT22;8371;52.272;9.746;2024-01-07T01:10:51;2.50;89.30
16517;DHT22;8371;52.272;9.746;2024-01-07T01:13:16;2.50;89.30
16517;DHT22;8371;52.272;9.746;2024-01-07T01:15:42;2.50;89.20
16517;DHT22;8371;52.272;9.746;2024-01-07T01:18:08;2.50;89.20
16517;DHT22;8371;52.272;9.746;2024-01-07T01:20:33;2.50;89.20
16517;DHT22;8371;52.272;9.746;2024-01-07T01:22:59;2.50;89.20
16517;DHT22;8371;52.272;9.746;2024-01-07T01:25:25;2.40;89.00
16517;DHT22;8371;52.272;9.746;2024-01-07T01:27:51;2.40;89.00
16517;DHT22;8371;52.272;9.746;2024-01-07T01:30:17;2.40;89.10
16517;DHT22;8371;52.272;9.746;2024-01-07T01:32:43;2.40;89.00
16517;DHT22;8371;52.272;9.746;2024-01-07T01:35:09;2.40;89.00
16517;DHT22;8371;52.272;9.746;2024-01-07T01:37:35;2.30;88.90
16517;DHT22;8371;52.272;9.746;2024-01-07T01:40:00;2.30;88.90
16517;DHT22;8371;52.272;9.746;2024-01-07T01:42:26;2.30;88.90
16517;DHT22;8371;52.272;9.746;2024-01-07T01:44:52;2.30;88.60
16517;DHT22;8371;52.272;9.746;2024-01-07T01:47:19;2.30;88.60
16517;DHT22;8371;52.272;9.746;2024-01-07T01:49:45;2.30;88.80
16517;DHT22;8371;52.272;9.746;2024-01-07T01:52:12;2.20;88.80
16517;DHT22;8371;52.272;9.746;2024-01-07T01:54:38;2.20;88.60
16517;DHT22;8371;52.272;9.746;2024-01-07T01:57:05;2.20;88.70
16517;DHT22;8371;52.272;9.746;2024-01-07T01:59:31;2.20;88.70
16517;DHT22;8371;52.272;9.746;2024-01-07T02:01:59;2.20;88.60
16517;DHT22;8371;52.272;9.746;2024-01-07T02:04:25;2.20;88.70
16517;DHT22;8371;52.272;9.746;2024-01-07T02:06:51;2.20;88.60
16517;DHT22;8371;52.272;9.746;2024-01-07T02:09:16;2.20;88.60
16517;DHT22;8371;52.272;9.746;2024-01-07T02:11:42;2.20;88.60
16517;DHT22;8371;52.272;9.746;2024-01-07T02:14:08;2.20;88.50
16517;DHT22;8371;52.272;9.746;2024-01-07T02:16:33;2.20;88.60
16517;DHT22;8371;52.272;9.746;2024-01-07T02:18:59;2.20;88.40
16517;DHT22;8371;52.272;9.746;2024-01-07T02:21:25;2.20;88.50
16517;DHT22;8371;52.272;9.746;2024-01-07T02:23:50;2.20;88.30
16517;DHT22;8371;52.272;9.746;2024-01-07T02:26:16;2.10;88.40
16517;DHT22;8371;52.272;9.746;2024-01-07T02:28:42;2.10;88.50
16517;DHT22;8371;52.272;9.746;2024-01-07T02:31:07;2.10;88.50
16517;DHT22;8371;52.272;9.746;2024-01-07T02:33:33;2.10;88.50
16517;DHT22;8371;52.272;9.746;2024-01-07T02:35:59;2.10;88.60
16517;DHT22;8371;52.272;9.746;2024-01-07T02:38:24;2.10;89.10
16517;DHT22;8371;52.272;9.746;2024-01-07T02:40:50;2.10;88.70
16517;DHT22;8371;52.272;9.746;2024-01-07T02:43:15;2.00;88.60
16517;DHT22;8371;52.272;9.746;2024-01-07T02:45:41;2.10;88.70
16517;DHT22;8371;52.272;9.746;2024-01-07T02:48:07;2.00;88.60
16517;DHT22;8371;52.272;9.746;2024-01-07T02:50:33;2.00;88.60
16517;DHT22;8371;52.272;9.746;2024-01-07T02:52:58;2.00;88.70
16517;DHT22;8371;52.272;9.746;2024-01-07T02:55:24;2.00;88.70
16517;DHT22;8371;52.272;9.746;2024-01-07T02:57:50;2.00;88.70
16517;DHT22;8371;52.272;9.746;2024-01-07T03:00:16;1.90;88.60
16517;DHT22;8371;52.272;9.746;2024-01-07T03:02:42;1.90;88.50
16517;DHT22;8371;52.272;9.746;2024-01-07T03:05:08;1.90;88.40
16517;DHT22;8371;52.272;9.746;2024-01-07T03:07:33;1.90;88.40
16517;DHT22;8371;52.272;9.746;2024-01-07T03:09:59;1.80;88.30
16517;DHT22;8371;52.272;9.746;2024-01-07T03:12:25;1.80;88.40
16517;DHT22;8371;52.272;9.746;2024-01-07T03:14:51;1.80;88.30
16517;DHT22;8371;52.272;9.746;2024-01-07T03:17:16;1.80;88.30
16517;DHT22;8371;52.272;9.746;2024-01-07T03:19:43;1.80;88.30
16517;DHT22;8371;52.272;9.746;2024-01-07T03:22:08;1.70;88.30
16517;DHT22;8371;52.272;9.746;2024-01-07T03:24:34;1.70;88.40
16517;DHT22;8371;52.272;9.746;2024-01-07T03:27:00;1.70;88.40
16517;DHT22;8371;52.272;9.746;2024-01-07T03:29:26;1.70;88.40
16517;DHT22;8371;52.272;9.746;2024-01-07T03:31:51;1.70;88.30
16517;DHT22;8371;52.272;9.746;2024-01-07T03:34:19;1.70;88.20
16517;DHT22;8371;52.272;9.746;2024-01-07T03:36:45;1.70;88.20
16517;DHT22;8371;52.272;9.746;2024-01-07T03:39:11;1.70;88.30
16517;DHT22;8371;52.272;9.746;2024-01-07T03:41:36;1.70;88.30
16517;DHT22;8371;52.272;9.746;2024-01-07T03:44:02;1.70;88.40
16517;DHT22;8371;52.272;9.746;2024-01-07T03:46:27;1.70;88.30
16517;DHT22;8371;52.272;9.746;2024-01-07T03:48:53;1.70;88.40
16517;DHT22;8371;52.272;9.746;2024-01-07T03:51:19;1.70;88.40
16517;DHT22;8371;52.272;9.746;2024-01-07T03:53:44;1.70;88.30
16517;DHT22;8371;52.272;9.746;2024-01-07T03:56:10;1.70;88.20
16517;DHT22;8371;52.272;9.746;2024-01-07T03:58:36;1.70;87.80
16517;DHT22;8371;52.272;9.746;2024-01-07T04:01:01;1.70;87.80
16517;DHT22;8371;52.272;9.746;2024-01-07T04:03:27;1.70;87.80
16517;DHT22;8371;52.272;9.746;2024-01-07T04:05:53;1.70;87.60
16517;DHT22;8371;52.272;9.746;2024-01-07T04:08:18;1.60;87.40
16517;DHT22;8371;52.272;9.746;2024-01-07T04:10:44;1.60;87.60
16517;DHT22;8371;52.272;9.746;2024-01-07T04:13:10;1.60;87.60
16517;DHT22;8371;52.272;9.746;2024-01-07T04:15:36;1.60;87.80
16517;DHT22;8371;52.272;9.746;2024-01-07T04:18:06;1.60;87.70
16517;DHT22;8371;52.272;9.746;2024-01-07T04:20:30;1.60;87.40
16517;DHT22;8371;52.272;9.746;2024-01-07T04:22:56;1.60;87.20
16517;DHT22;8371;52.272;9.746;2024-01-07T04:25:23;1.60;87.30
16517;DHT22;8371;52.272;9.746;2024-01-07T04:27:49;1.60;88.10
16517;DHT22;8371;52.272;9.746;2024-01-07T04:30:14;1.60;87.40
16517;DHT22;8371;52.272;9.746;2024-01-07T04:32:40;1.60;87.50
16517;DHT22;8371;52.272;9.746;2024-01-07T04:35:06;1.60;87.40
16517;DHT22;8371;52.272;9.746;2024-01-07T04:37:33;1.60;87.50
16517;DHT22;8371;52.272;9.746;2024-01-07T04:39:58;1.60;87.40
16517;DHT22;8371;52.272;9.746;2024-01-07T04:42:24;1.60;87.30
16517;DHT22;8371;52.272;9.746;2024-01-07T04:44:50;1.60;87.30
16517;DHT22;8371;52.272;9.746;2024-01-07T04:47:29;1.60;87.40
16517;DHT22;8371;52.272;9.746;2024-01-07T04:49:56;1.60;87.30
16517;DHT22;8371;52.272;9.746;2024-01-07T04:52:22;1.60;87.30
16517;DHT22;8371;52.272;9.746;2024-01-07T04:54:50;1.50;87.30
16517;DHT22;8371;52.272;9.746;2024-01-07T04:57:16;1.50;86.70
16517;DHT22;8371;52.272;9.746;2024-01-07T04:59:42;1.50;87.50
16517;DHT22;8371;52.272;9.746;2024-01-07T05:02:07;1.60;87.30
16517;DHT22;8371;52.272;9.746;2024-01-07T05:04:34;1.50;87.20
16517;DHT22;8371;52.272;9.746;2024-01-07T05:07:00;1.50;87.30
16517;DHT22;8371;52.272;9.746;2024-01-07T05:09:25;1.50;87.00
16517;DHT22;8371;52.272;9.746;2024-01-07T05:11:51;1.50;86.80
16517;DHT22;8371;52.272;9.746;2024-01-07T05:14:17;1.50;86.90
16517;DHT22;8371;52.272;9.746;2024-01-07T05:16:42;1.50;87.00
16517;DHT22;8371;52.272;9.746;2024-01-07T05:19:08;1.50;86.70
16517;DHT22;8371;52.272;9.746;2024-01-07T05:21:33;1.50;86.90
16517;DHT22;8371;52.272;9.746;2024-01-07T05:23:59;1.50;86.90
16517;DHT22;8371;52.272;9.746;2024-01-07T05:26:25;1.50;86.40
16517;DHT22;8371;52.272;9.746;2024-01-07T05:28:50;1.50;86.10
16517;DHT22;8371;52.272;9.746;2024-01-07T05:31:18;1.50;85.60
16517;DHT22;8371;52.272;9.746;2024-01-07T05:33:44;1.50;85.50
16517;DHT22;8371;52.272;9.746;2024-01-07T05:36:11;1.50;85.80
16517;DHT22;8371;52.272;9.746;2024-01-07T05:38:37;1.50;85.40
16517;DHT22;8371;52.272;9.746;2024-01-07T05:41:05;1.50;86.20
16517;DHT22;8371;52.272;9.746;2024-01-07T05:43:30;1.50;85.50
16517;DHT22;8371;52.272;9.746;2024-01-07T05:45:56;1.50;85.40
16517;DHT22;8371;52.272;9.746;2024-01-07T05:48:24;1.40;85.20
16517;DHT22;8371;52.272;9.746;2024-01-07T05:50:50;1.20;85.30
16517;DHT22;8371;52.272;9.746;2024-01-07T05:53:17;1.40;85.50
16517;DHT22;8371;52.272;9.746;2024-01-07T05:55:42;1.40;85.60
16517;DHT22;8371;52.272;9.746;2024-01-07T05:58:08;1.40;85.80
16517;DHT22;8371;52.272;9.746;2024-01-07T06:00:34;1.40;86.50
16517;DHT22;8371;52.272;9.746;2024-01-07T06:03:00;1.40;85.50
16517;DHT22;8371;52.272;9.746;2024-01-07T06:05:26;1.40;85.10
16517;DHT22;8371;52.272;9.746;2024-01-07T06:07:51;1.40;85.10
16517;DHT22;8371;52.272;9.746;2024-01-07T06:10:17;1.40;85.40
16517;DHT22;8371;52.272;9.746;2024-01-07T06:12:43;1.40;85.10
16517;DHT22;8371;52.272;9.746;2024-01-07T06:15:09;1.40;84.70
16517;DHT22;8371;52.272;9.746;2024-01-07T06:17:34;1.40;85.20
16517;DHT22;8371;52.272;9.746;2024-01-07T06:20:00;1.30;85.10
16517;DHT22;8371;52.272;9.746;2024-01-07T06:22:26;1.30;84.80
16517;DHT22;8371;52.272;9.746;2024-01-07T06:24:51;1.30;84.50
16517;DHT22;8371;52.272;9.746;2024-01-07T06:27:17;1.30;84.80
16517;DHT22;8371;52.272;9.746;2024-01-07T06:29:43;1.30;84.80
16517;DHT22;8371;52.272;9.746;2024-01-07T06:32:09;1.30;84.90
16517;DHT22;8371;52.272;9.746;2024-01-07T06:34:35;1.30;84.70
16517;DHT22;8371;52.272;9.746;2024-01-07T06:37:01;1.20;84.70
16517;DHT22;8371;52.272;9.746;2024-01-07T06:39:27;1.20;84.80
16517;DHT22;8371;52.272;9.746;2024-01-07T06:41:53;1.20;84.60
16517;DHT22;8371;52.272;9.746;2024-01-07T06:44:19;1.20;84.60
16517;DHT22;8371;52.272;9.746;2024-01-07T06:46:45;1.10;84.50
16517;DHT22;8371;52.272;9.746;2024-01-07T06:49:11;1.10;84.10
16517;DHT22;8371;52.272;9.746;2024-01-07T06:51:37;1.10;84.50
16517;DHT22;8371;52.272;9.746;2024-01-07T06:54:04;1.10;84.10
16517;DHT22;8371;52.272;9.746;2024-01-07T06:56:30;1.00;84.40
16517;DHT22;8371;52.272;9.746;2024-01-07T06:58:57;1.00;84.40
16517;DHT22;8371;52.272;9.746;2024-01-07T07:01:22;1.00;84.20
16517;DHT22;8371;52.272;9.746;2024-01-07T07:03:49;1.00;84.70
16517;DHT22;8371;52.272;9.746;2024-01-07T07:06:15;0.90;84.50
16517;DHT22;8371;52.272;9.746;2024-01-07T07:08:41;0.90;84.80
16517;DHT22;8371;52.272;9.746;2024-01-07T07:11:07;0.90;84.30
16517;DHT22;8371;52.272;9.746;2024-01-07T07:13:33;0.90;84.30
16517;DHT22;8371;52.272;9.746;2024-01-07T07:15:59;0.90;84.50
16517;DHT22;8371;52.272;9.746;2024-01-07T07:18:25;0.90;84.70
16517;DHT22;8371;52.272;9.746;2024-01-07T07:20:50;0.90;84.20
16517;DHT22;8371;52.272;9.746;2024-01-07T07:23:17;0.80;84.10
16517;DHT22;8371;52.272;9.746;2024-01-07T07:25:43;0.80;84.30
16517;DHT22;8371;52.272;9.746;2024-01-07T07:28:09;0.80;84.10
16517;DHT22;8371;52.272;9.746;2024-01-07T07:30:34;0.80;83.60
16517;DHT22;8371;52.272;9.746;2024-01-07T07:33:01;0.80;83.80
16517;DHT22;8371;52.272;9.746;2024-01-07T07:35:27;0.70;83.40
16517;DHT22;8371;52.272;9.746;2024-01-07T07:37:53;0.70;83.30
16517;DHT22;8371;52.272;9.746;2024-01-07T07:40:19;0.70;83.60
16517;DHT22;8371;52.272;9.746;2024-01-07T07:42:45;0.70;83.90
16517;DHT22;8371;52.272;9.746;2024-01-07T07:45:11;0.60;83.70
16517;DHT22;8371;52.272;9.746;2024-01-07T07:47:37;0.60;83.90
16517;DHT22;8371;52.272;9.746;2024-01-07T07:50:03;0.60;84.00
16517;DHT22;8371;52.272;9.746;2024-01-07T07:52:29;0.60;83.90
16517;DHT22;8371;52.272;9.746;2024-01-07T07:54:55;0.60;84.30
16517;DHT22;8371;52.272;9.746;2024-01-07T07:57:21;0.60;83.30
16517;DHT22;8371;52.272;9.746;2024-01-07T07:59:50;0.70;83.90
16517;DHT22;8371;52.272;9.746;2024-01-07T08:02:16;0.60;84.10
16517;DHT22;8371;52.272;9.746;2024-01-07T08:04:41;0.60;84.10
16517;DHT22;8371;52.272;9.746;2024-01-07T08:07:10;0.60;83.90
16517;DHT22;8371;52.272;9.746;2024-01-07T08:09:36;0.70;84.30
16517;DHT22;8371;52.272;9.746;2024-01-07T08:12:05;0.70;84.40
16517;DHT22;8371;52.272;9.746;2024-01-07T08:14:32;0.70;84.30
16517;DHT22;8371;52.272;9.746;2024-01-07T08:16:58;0.70;84.20
16517;DHT22;8371;52.272;9.746;2024-01-07T08:19:24;0.70;84.10
16517;DHT22;8371;52.272;9.746;2024-01-07T08:21:50;0.70;84.30
16517;DHT22;8371;52.272;9.746;2024-01-07T08:24:16;0.70;84.10
16517;DHT22;8371;52.272;9.746;2024-01-07T08:26:41;0.70;84.20
16517;DHT22;8371;52.272;9.746;2024-01-07T08:29:07;0.80;84.30
16517;DHT22;8371;52.272;9.746;2024-01-07T08:31:33;0.80;84.50
16517;DHT22;8371;52.272;9.746;2024-01-07T08:33:58;0.80;84.50
16517;DHT22;8371;52.272;9.746;2024-01-07T08:36:25;0.80;84.60
16517;DHT22;8371;52.272;9.746;2024-01-07T08:38:51;0.80;84.50
16517;DHT22;8371;52.272;9.746;2024-01-07T08:41:17;0.90;84.40
16517;DHT22;8371;52.272;9.746;2024-01-07T08:43:44;0.90;84.50
16517;DHT22;8371;52.272;9.746;2024-01-07T08:46:11;0.90;84.20
16517;DHT22;8371;52.272;9.746;2024-01-07T08:48:39;0.90;84.10
16517;DHT22;8371;52.272;9.746;2024-01-07T08:51:05;0.90;84.40
16517;DHT22;8371;52.272;9.746;2024-01-07T08:53:31;0.90;84.40
16517;DHT22;8371;52.272;9.746;2024-01-07T08:55:57;1.00;84.40
16517;DHT22;8371;52.272;9.746;2024-01-07T08:58:23;1.00;84.60
16517;DHT22;8371;52.272;9.746;2024-01-07T09:00:48;1.00;84.10
16517;DHT22;8371;52.272;9.746;2024-01-07T09:03:14;1.00;84.30
16517;DHT22;8371;52.272;9.746;2024-01-07T09:05:40;1.00;84.00
16517;DHT22;8371;52.272;9.746;2024-01-07T09:08:06;1.10;84.40
16517;DHT22;8371;52.272;9.746;2024-01-07T09:10:32;1.10;84.60
16517;DHT22;8371;52.272;9.746;2024-01-07T09:12:59;1.10;84.50
16517;DHT22;8371;52.272;9.746;2024-01-07T09:15:25;1.10;84.50
16517;DHT22;8371;52.272;9.746;2024-01-07T09:17:51;1.10;84.50
16517;DHT22;8371;52.272;9.746;2024-01-07T09:20:16;1.20;84.70
16517;DHT22;8371;52.272;9.746;2024-01-07T09:22:42;1.20;84.80
16517;DHT22;8371;52.272;9.746;2024-01-07T09:25:09;1.20;84.70
16517;DHT22;8371;52.272;9.746;2024-01-07T09:27:35;1.20;84.80
16517;DHT22;8371;52.272;9.746;2024-01-07T09:30:01;1.30;84.60
16517;DHT22;8371;52.272;9.746;2024-01-07T09:32:27;1.30;84.50
16517;DHT22;8371;52.272;9.746;2024-01-07T09:34:53;1.30;84.60
16517;DHT22;8371;52.272;9.746;2024-01-07T09:37:19;1.40;84.80
16517;DHT22;8371;52.272;9.746;2024-01-07T09:39:45;1.40;84.50
16517;DHT22;8371;52.272;9.746;2024-01-07T09:42:15;1.40;84.50
16517;DHT22;8371;52.272;9.746;2024-01-07T09:44:42;1.40;84.50
16517;DHT22;8371;52.272;9.746;2024-01-07T09:47:13;1.50;84.70
16517;DHT22;8371;52.272;9.746;2024-01-07T09:49:39;1.50;84.80
16517;DHT22;8371;52.272;9.746;2024-01-07T09:52:05;1.50;84.50
16517;DHT22;8371;52.272;9.746;2024-01-07T09:54:33;1.50;84.50
16517;DHT22;8371;52.272;9.746;2024-01-07T09:57:03;1.50;84.40
16517;DHT22;8371;52.272;9.746;2024-01-07T09:59:29;1.50;84.30
16517;DHT22;8371;52.272;9.746;2024-01-07T10:01:56;1.50;84.00
16517;DHT22;8371;52.272;9.746;2024-01-07T10:04:23;1.60;84.70
16517;DHT22;8371;52.272;9.746;2024-01-07T10:06:49;1.60;84.70
16517;DHT22;8371;52.272;9.746;2024-01-07T10:09:17;1.60;84.70
16517;DHT22;8371;52.272;9.746;2024-01-07T10:11:44;1.70;84.80
16517;DHT22;8371;52.272;9.746;2024-01-07T10:14:10;1.70;84.50
16517;DHT22;8371;52.272;9.746;2024-01-07T10:16:36;1.70;84.70
16517;DHT22;8371;52.272;9.746;2024-01-07T10:19:02;1.70;84.80
16517;DHT22;8371;52.272;9.746;2024-01-07T10:21:27;1.70;84.70
16517;DHT22;8371;52.272;9.746;2024-01-07T10:24:13;1.80;84.70
16517;DHT22;8371;52.272;9.746;2024-01-07T10:26:41;1.70;84.40
16517;DHT22;8371;52.272;9.746;2024-01-07T10:29:07;1.80;84.30
16517;DHT22;8371;52.272;9.746;2024-01-07T10:31:45;1.80;84.30
16517;DHT22;8371;52.272;9.746;2024-01-07T10:34:09;1.80;84.00
16517;DHT22;8371;52.272;9.746;2024-01-07T10:36:36;1.80;84.00
16517;DHT22;8371;52.272;9.746;2024-01-07T10:39:02;1.80;83.80
16517;DHT22;8371;52.272;9.746;2024-01-07T10:41:29;1.80;84.40
16517;DHT22;8371;52.272;9.746;2024-01-07T10:43:57;1.80;84.20
16517;DHT22;8371;52.272;9.746;2024-01-07T10:46:27;1.80;84.80
16517;DHT22;8371;52.272;9.746;2024-01-07T10:49:00;1.80;84.30
16517;DHT22;8371;52.272;9.746;2024-01-07T10:51:28;1.90;84.50
16517;DHT22;8371;52.272;9.746;2024-01-07T10:53:55;1.90;84.70
16517;DHT22;8371;52.272;9.746;2024-01-07T10:56:25;1.90;84.70
16517;DHT22;8371;52.272;9.746;2024-01-07T10:58:54;2.00;84.10
16517;DHT22;8371;52.272;9.746;2024-01-07T11:01:21;1.90;84.10
16517;DHT22;8371;52.272;9.746;2024-01-07T11:04:01;2.00;84.10
16517;DHT22;8371;52.272;9.746;2024-01-07T11:06:36;2.00;84.00
16517;DHT22;8371;52.272;9.746;2024-01-07T11:09:23;2.00;84.40
16517;DHT22;8371;52.272;9.746;2024-01-07T11:11:49;2.00;84.30
16517;DHT22;8371;52.272;9.746;2024-01-07T11:14:35;2.00;84.50
16517;DHT22;8371;52.272;9.746;2024-01-07T11:17:02;2.10;84.80
16517;DHT22;8371;52.272;9.746;2024-01-07T11:19:29;2.10;84.50
16517;DHT22;8371;52.272;9.746;2024-01-07T11:22:27;2.10;84.20
16517;DHT22;8371;52.272;9.746;2024-01-07T11:25:00;2.10;84.30
16517;DHT22;8371;52.272;9.746;2024-01-07T11:27:28;2.10;84.50
16517;DHT22;8371;52.272;9.746;2024-01-07T11:32:58;2.30;85.00
16517;DHT22;8371;52.272;9.746;2024-01-07T11:38:22;2.20;84.90
16517;DHT22;8371;52.272;9.746;2024-01-07T11:40:49;2.20;84.90
16517;DHT22;8371;52.272;9.746;2024-01-07T11:43:15;2.20;84.80
16517;DHT22;8371;52.272;9.746;2024-01-07T11:45:41;2.20;84.90
16517;DHT22;8371;52.272;9.746;2024-01-07T11:48:07;2.20;84.60
16517;DHT22;8371;52.272;9.746;2024-01-07T11:50:32;2.20;84.90
16517;DHT22;8371;52.272;9.746;2024-01-07T11:52:58;2.30;85.10
16517;DHT22;8371;52.272;9.746;2024-01-07T11:55:25;2.30;84.90
16517;DHT22;8371;52.272;9.746;2024-01-07T11:57:51;2.30;85.10
16517;DHT22;8371;52.272;9.746;2024-01-07T12:00:17;2.30;85.30
16517;DHT22;8371;52.272;9.746;2024-01-07T12:02:45;2.30;85.10
16517;DHT22;8371;52.272;9.746;2024-01-07T12:05:11;2.50;85.30
16517;DHT22;8371;52.272;9.746;2024-01-07T12:07:38;2.30;85.10
16517;DHT22;8371;52.272;9.746;2024-01-07T12:10:07;2.40;85.00
16517;DHT22;8371;52.272;9.746;2024-01-07T12:12:35;2.30;84.80
16517;DHT22;8371;52.272;9.746;2024-01-07T12:15:00;2.40;85.20
16517;DHT22;8371;52.272;9.746;2024-01-07T12:17:28;2.40;84.90
16517;DHT22;8371;52.272;9.746;2024-01-07T12:19:56;2.40;85.10
16517;DHT22;8371;52.272;9.746;2024-01-07T12:22:21;2.40;85.00
16517;DHT22;8371;52.272;9.746;2024-01-07T12:24:59;2.40;85.10
16517;DHT22;8371;52.272;9.746;2024-01-07T12:27:17;2.40;85.20
16517;DHT22;8371;52.272;9.746;2024-01-07T12:29:43;2.40;85.20
16517;DHT22;8371;52.272;9.746;2024-01-07T12:32:08;2.50;85.20
16517;DHT22;8371;52.272;9.746;2024-01-07T12:34:36;2.50;85.10
16517;DHT22;8371;52.272;9.746;2024-01-07T12:37:02;2.50;84.80
16517;DHT22;8371;52.272;9.746;2024-01-07T12:39:27;2.50;84.80
16517;DHT22;8371;52.272;9.746;2024-01-07T12:41:53;2.50;84.80
16517;DHT22;8371;52.272;9.746;2024-01-07T12:44:19;2.50;85.00
16517;DHT22;8371;52.272;9.746;2024-01-07T12:46:44;2.50;84.90
16517;DHT22;8371;52.272;9.746;2024-01-07T12:49:10;2.50;84.90
16517;DHT22;8371;52.272;9.746;2024-01-07T12:51:36;2.50;84.70
16517;DHT22;8371;52.272;9.746;2024-01-07T12:54:02;2.50;85.00
16517;DHT22;8371;52.272;9.746;2024-01-07T12:56:29;2.50;85.10
16517;DHT22;8371;52.272;9.746;2024-01-07T12:58:54;2.50;85.10
16517;DHT22;8371;52.272;9.746;2024-01-07T13:01:20;2.50;84.50
16517;DHT22;8371;52.272;9.746;2024-01-07T13:03:46;2.50;84.60
16517;DHT22;8371;52.272;9.746;2024-01-07T13:06:11;2.50;84.80
16517;DHT22;8371;52.272;9.746;2024-01-07T13:08:37;2.50;85.00
16517;DHT22;8371;52.272;9.746;2024-01-07T13:11:03;2.50;85.00
16517;DHT22;8371;52.272;9.746;2024-01-07T13:13:29;2.50;85.10
16517;DHT22;8371;52.272;9.746;2024-01-07T13:15:55;2.60;85.20
16517;DHT22;8371;52.272;9.746;2024-01-07T13:18:22;2.60;85.30
16517;DHT22;8371;52.272;9.746;2024-01-07T13:20:48;2.60;85.30
16517;DHT22;8371;52.272;9.746;2024-01-07T13:23:13;2.60;86.10
16517;DHT22;8371;52.272;9.746;2024-01-07T13:25:39;2.60;85.40
16517;DHT22;8371;52.272;9.746;2024-01-07T13:28:05;2.60;85.40
16517;DHT22;8371;52.272;9.746;2024-01-07T13:30:32;2.60;85.20
16517;DHT22;8371;52.272;9.746;2024-01-07T13:32:59;2.60;85.10
16517;DHT22;8371;52.272;9.746;2024-01-07T13:35:25;2.60;85.20
16517;DHT22;8371;52.272;9.746;2024-01-07T13:37:51;2.70;85.30
16517;DHT22;8371;52.272;9.746;2024-01-07T13:40:17;2.70;85.20
16517;DHT22;8371;52.272;9.746;2024-01-07T13:42:43;2.70;85.30
16517;DHT22;8371;52.272;9.746;2024-01-07T13:45:09;2.70;85.30
16517;DHT22;8371;52.272;9.746;2024-01-07T13:47:35;2.70;85.20
16517;DHT22;8371;52.272;9.746;2024-01-07T13:50:01;2.70;85.30
16517;DHT22;8371;52.272;9.746;2024-01-07T13:52:29;2.70;85.30
16517;DHT22;8371;52.272;9.746;2024-01-07T13:54:55;2.70;85.30
16517;DHT22;8371;52.272;9.746;2024-01-07T13:57:21;2.70;85.20
16517;DHT22;8371;52.272;9.746;2024-01-07T13:59:46;2.70;85.20
16517;DHT22;8371;52.272;9.746;2024-01-07T14:02:12;2.70;85.20
16517;DHT22;8371;52.272;9.746;2024-01-07T14:04:38;2.70;85.20
16517;DHT22;8371;52.272;9.746;2024-01-07T14:07:03;2.70;85.20
16517;DHT22;8371;52.272;9.746;2024-01-07T14:09:29;2.70;85.10
16517;DHT22;8371;52.272;9.746;2024-01-07T14:11:57;2.70;85.20
16517;DHT22;8371;52.272;9.746;2024-01-07T14:14:23;2.70;85.20
16517;DHT22;8371;52.272;9.746;2024-01-07T14:16:49;2.70;85.20
16517;DHT22;8371;52.272;9.746;2024-01-07T14:19:14;2.70;85.40
16517;DHT22;8371;52.272;9.746;2024-01-07T14:21:42;2.70;85.40
16517;DHT22;8371;52.272;9.746;2024-01-07T14:24:07;2.70;85.40
16517;DHT22;8371;52.272;9.746;2024-01-07T14:26:33;2.60;85.30
16517;DHT22;8371;52.272;9.746;2024-01-07T14:28:59;2.70;85.20
16517;DHT22;8371;52.272;9.746;2024-01-07T14:31:24;2.60;85.00
16517;DHT22;8371;52.272;9.746;2024-01-07T14:33:50;2.60;85.00
16517;DHT22;8371;52.272;9.746;2024-01-07T14:36:16;2.60;84.50
16517;DHT22;8371;52.272;9.746;2024-01-07T14:38:43;2.60;84.70
16517;DHT22;8371;52.272;9.746;2024-01-07T14:41:10;2.60;84.60
16517;DHT22;8371;52.272;9.746;2024-01-07T14:43:36;2.50;84.70
16517;DHT22;8371;52.272;9.746;2024-01-07T14:46:03;2.50;84.70
16517;DHT22;8371;52.272;9.746;2024-01-07T14:48:29;2.50;84.70
16517;DHT22;8371;52.272;9.746;2024-01-07T14:51:01;2.40;84.60
16517;DHT22;8371;52.272;9.746;2024-01-07T14:53:27;2.40;84.70
16517;DHT22;8371;52.272;9.746;2024-01-07T14:55:56;2.40;84.70
16517;DHT22;8371;52.272;9.746;2024-01-07T14:58:24;2.30;84.70
16517;DHT22;8371;52.272;9.746;2024-01-07T15:00:50;2.30;84.50
16517;DHT22;8371;52.272;9.746;2024-01-07T15:03:16;2.30;84.70
16517;DHT22;8371;52.272;9.746;2024-01-07T15:05:44;2.20;84.80
16517;DHT22;8371;52.272;9.746;2024-01-07T15:08:09;2.20;84.90
16517;DHT22;8371;52.272;9.746;2024-01-07T15:10:37;2.20;84.90
16517;DHT22;8371;52.272;9.746;2024-01-07T15:13:03;2.10;84.90
16517;DHT22;8371;52.272;9.746;2024-01-07T15:15:28;2.10;84.90
16517;DHT22;8371;52.272;9.746;2024-01-07T15:17:56;2.20;85.00
16517;DHT22;8371;52.272;9.746;2024-01-07T15:20:22;2.10;84.90
16517;DHT22;8371;52.272;9.746;2024-01-07T15:22:48;2.10;85.00
16517;DHT22;8371;52.272;9.746;2024-01-07T15:25:15;2.10;84.60
16517;DHT22;8371;52.272;9.746;2024-01-07T15:27:41;2.00;84.30
16517;DHT22;8371;52.272;9.746;2024-01-07T15:30:09;2.10;84.30
16517;DHT22;8371;52.272;9.746;2024-01-07T15:32:34;2.00;84.30
16517;DHT22;8371;52.272;9.746;2024-01-07T15:35:00;2.00;84.20
16517;DHT22;8371;52.272;9.746;2024-01-07T15:37:26;2.00;84.40
16517;DHT22;8371;52.272;9.746;2024-01-07T15:39:51;2.00;84.50
16517;DHT22;8371;52.272;9.746;2024-01-07T15:42:18;1.90;84.40
16517;DHT22;8371;52.272;9.746;2024-01-07T15:44:44;1.90;83.90
16517;DHT22;8371;52.272;9.746;2024-01-07T15:47:10;1.90;84.20
16517;DHT22;8371;52.272;9.746;2024-01-07T15:49:36;1.90;84.40
16517;DHT22;8371;52.272;9.746;2024-01-07T15:52:01;1.80;84.40
16517;DHT22;8371;52.272;9.746;2024-01-07T15:54:27;1.80;84.40
16517;DHT22;8371;52.272;9.746;2024-01-07T15:56:53;1.80;84.40
16517;DHT22;8371;52.272;9.746;2024-01-07T15:59:21;1.80;84.20
16517;DHT22;8371;52.272;9.746;2024-01-07T16:01:47;1.70;84.00